Time;durP1;ratioP1;P1;durP2;ratioP2;P2;SDS_P1;SDS_P2;PMS_P1;PMS_P2;Temp;Humidity;BMP_temperature;BMP_pressure;BME280_temperature;BME280_humidity;BME280_pressure;Samples;Min_cycle;Max_cycle;Signal;HPM_P1;HPM_P2
2022/04/08 00:01:38;;;;;;;21.48;12.65;;;;;;;4.78;80.67;96067.72;1709596;84;21390;-78
2022/04/08 00:04:05;;;;;;;20.92;12.10;;;;;;;4.81;81.48;96064.98;1699293;84;21096;-78
2022/04/08 00:06:32;;;;;;;18.73;12.40;;;;;;;4.82;81.23;96078.03;1703601;83;21008;-79
2022/04/08 00:08:58;;;;;;;18.57;11.78;;;;;;;4.83;81.44;96084.14;1692181;84;21000;-79
2022/04/08 00:11:25;;;;;;;18.30;11.60;;;;;;;4.79;81.49;96090.42;1706500;82;20949;-79
2022/04/08 00:13:53;;;;;;;22.70;11.65;;;;;;;4.70;82.38;96093.77;1743887;82;21052;-79
2022/04/08 00:16:21;;;;;;;20.37;12.13;;;;;;;4.63;81.80;96094.92;1704463;82;21051;-78
2022/04/08 00:18:48;;;;;;;17.85;11.05;;;;;;;4.57;82.41;96089.44;1743855;82;21430;-78
2022/04/08 00:21:18;;;;;;;19.82;11.12;;;;;;;4.54;82.00;96095.25;1742370;82;21453;-78
2022/04/08 00:23:45;;;;;;;22.00;12.47;;;;;;;4.44;81.11;96102.61;1732444;82;21064;-78
2022/04/08 00:26:12;;;;;;;19.87;12.15;;;;;;;4.39;81.59;96105.86;1713560;84;21460;-78
2022/04/08 00:28:38;;;;;;;19.85;13.08;;;;;;;4.35;81.42;96106.39;1710523;82;21029;-78
2022/04/08 00:31:05;;;;;;;20.88;12.58;;;;;;;4.30;81.13;96098.70;1699357;84;21057;-78
2022/04/08 00:33:35;;;;;;;24.65;14.30;;;;;;;4.26;81.05;96113.27;1696403;83;21111;-78
2022/04/08 00:36:02;;;;;;;21.70;14.05;;;;;;;4.19;84.58;96102.17;1685872;85;20997;-78
2022/04/08 00:38:28;;;;;;;23.10;14.47;;;;;;;4.08;82.10;96104.67;1686323;85;21398;-78
2022/04/08 00:40:55;;;;;;;30.90;15.78;;;;;;;4.02;82.00;96108.83;1686530;84;21008;-78
2022/04/08 00:43:39;;;;;;;23.35;15.23;;;;;;;3.92;83.38;96099.56;1686359;85;21068;-78
2022/04/08 00:46:09;;;;;;;22.00;14.47;;;;;;;3.82;83.24;96107.73;1697111;84;21028;-78
2022/04/08 00:48:37;;;;;;;21.95;13.03;;;;;;;3.76;82.18;96089.59;1715246;84;21056;-79
2022/04/08 00:51:07;;;;;;;22.05;13.68;;;;;;;3.73;82.11;96100.64;1714779;84;21140;-78
2022/04/08 00:53:36;;;;;;;21.80;13.60;;;;;;;3.70;81.83;96093.73;1714982;83;21001;-78
2022/04/08 00:56:04;;;;;;;19.85;12.88;;;;;;;3.69;81.81;96085.02;1714969;84;20993;-78
2022/04/08 00:58:32;;;;;;;20.90;13.20;;;;;;;3.67;81.56;96094.70;1700441;84;21075;-77
2022/04/08 01:00:59;;;;;;;21.97;13.00;;;;;;;3.63;81.41;96094.83;1681953;85;20996;-77
2022/04/08 01:03:26;;;;;;;22.40;13.50;;;;;;;3.56;81.35;96098.97;1686452;85;21457;-77
2022/04/08 01:05:53;;;;;;;22.93;13.95;;;;;;;3.52;81.32;96109.58;1688952;84;21001;-77
2022/04/08 01:08:20;;;;;;;21.55;14.03;;;;;;;3.52;81.87;96108.27;1715066;84;21025;-77
2022/04/08 01:10:50;;;;;;;25.40;13.83;;;;;;;3.51;82.30;96119.22;1715262;83;21452;-77
2022/04/08 01:13:17;;;;;;;23.47;13.50;;;;;;;3.51;83.31;96115.72;1715138;84;21072;-77
2022/04/08 01:15:44;;;;;;;23.55;14.75;;;;;;;3.48;82.59;96112.75;1714888;82;20961;-77
2022/04/08 01:18:11;;;;;;;21.40;14.18;;;;;;;3.49;82.39;96120.17;1724225;82;21021;-77
2022/04/08 01:20:38;;;;;;;24.47;15.08;;;;;;;3.50;82.17;96121.87;1719292;82;20977;-77
2022/04/08 01:23:05;;;;;;;21.57;13.90;;;;;;;3.49;81.92;96113.63;1711282;83;20996;-77
2022/04/08 01:25:32;;;;;;;23.67;12.70;;;;;;;3.46;82.20;96111.09;1673611;85;21091;-78
2022/04/08 01:27:58;;;;;;;24.77;12.58;;;;;;;3.46;82.06;96113.70;1716347;82;20964;-78
2022/04/08 01:30:25;;;;;;;19.10;12.35;;;;;;;3.46;82.40;96111.09;1726546;83;21071;-77
2022/04/08 01:32:52;;;;;;;15.90;10.95;;;;;;;3.47;82.05;96111.48;1727628;83;21004;-77
2022/04/08 01:35:18;;;;;;;17.05;10.90;;;;;;;3.49;82.30;96119.70;1729165;83;21485;-77
2022/04/08 01:37:45;;;;;;;14.55;10.30;;;;;;;3.49;82.14;96107.91;1729276;83;21004;-79
2022/04/08 01:40:12;;;;;;;17.40;10.38;;;;;;;3.53;82.40;96117.39;1729299;83;21425;-79
2022/04/08 01:42:39;;;;;;;17.10;10.80;;;;;;;3.56;82.37;96109.89;1730795;83;20990;-79
2022/04/08 01:45:08;;;;;;;19.48;11.40;;;;;;;3.60;82.31;96106.70;1730849;83;21035;-79
2022/04/08 01:47:35;;;;;;;17.65;11.65;;;;;;;3.61;82.36;96111.06;1730630;83;21039;-79
2022/04/08 01:50:01;;;;;;;18.25;10.45;;;;;;;3.61;82.51;96105.83;1730765;83;21020;-79
2022/04/08 01:52:28;;;;;;;17.75;11.10;;;;;;;3.63;82.88;96113.17;1712674;83;21023;-79
2022/04/08 01:54:54;;;;;;;17.75;11.25;;;;;;;3.62;82.97;96111.46;1700409;84;20984;-79
2022/04/08 01:57:23;;;;;;;16.57;10.90;;;;;;;3.67;83.13;96112.17;1700474;84;21023;-79
2022/04/08 01:59:50;;;;;;;18.12;11.18;;;;;;;3.69;83.32;96109.03;1700113;84;21064;-78
2022/04/08 02:02:17;;;;;;;20.10;11.57;;;;;;;3.74;83.19;96105.80;1699899;84;21039;-78
2022/04/08 02:04:43;;;;;;;20.60;11.85;;;;;;;3.71;82.99;96099.37;1724757;83;20980;-78
2022/04/08 02:07:10;;;;;;;18.67;12.20;;;;;;;3.69;82.74;96093.31;1701766;84;20991;-78
2022/04/08 02:09:36;;;;;;;19.35;11.75;;;;;;;3.67;82.76;96091.21;1701961;84;21480;-78
2022/04/08 02:12:04;;;;;;;20.82;12.35;;;;;;;3.61;82.36;96099.28;1701786;84;21051;-78
2022/04/08 02:14:31;;;;;;;21.33;12.10;;;;;;;3.54;82.50;96104.69;1721736;83;21003;-78
2022/04/08 02:16:58;;;;;;;19.75;12.47;;;;;;;3.54;82.53;96107.78;1730672;83;21421;-78
2022/04/08 02:19:24;;;;;;;17.98;11.97;;;;;;;3.46;82.04;96101.92;1730908;83;20985;-78
2022/04/08 02:21:51;;;;;;;20.17;11.45;;;;;;;3.40;82.01;96099.91;1730664;83;22046;-78
2022/04/08 02:24:18;;;;;;;22.37;12.35;;;;;;;3.36;81.86;96103.52;1729745;83;21040;-78
2022/04/08 02:26:44;;;;;;;19.57;12.03;;;;;;;3.29;81.78;96106.78;1730724;83;21032;-77
2022/04/08 02:29:11;;;;;;;19.27;11.97;;;;;;;3.23;81.52;96106.11;1727343;81;21413;-77
2022/04/08 02:31:38;;;;;;;20.80;12.43;;;;;;;3.16;81.69;96115.94;1706694;83;21043;-76
2022/04/08 02:34:05;;;;;;;18.95;12.20;;;;;;;3.14;82.01;96112.48;1727917;82;21398;-77
2022/04/08 02:36:31;;;;;;;23.42;11.57;;;;;;;3.09;82.48;96111.33;1727434;83;21015;-76
2022/04/08 02:38:58;;;;;;;19.73;11.93;;;;;;;3.08;81.99;96104.83;1727670;83;21007;-76
2022/04/08 02:41:25;;;;;;;19.32;11.93;;;;;;;3.02;81.89;96105.42;1725562;83;21051;-76
2022/04/08 02:43:54;;;;;;;19.17;11.90;;;;;;;3.00;81.86;96107.68;1698699;84;21028;-76
2022/04/08 02:46:20;;;;;;;22.22;13.08;;;;;;;2.99;81.71;96116.44;1698610;84;21039;-79
2022/04/08 02:48:47;;;;;;;17.92;12.13;;;;;;;2.98;82.00;96110.78;1698590;84;20996;-77
2022/04/08 02:51:14;;;;;;;19.20;11.08;;;;;;;2.95;82.04;96116.95;1698570;84;21438;-77
2022/04/08 02:53:40;;;;;;;15.45;10.80;;;;;;;2.94;82.20;96118.34;1698875;83;21067;-78
2022/04/08 02:56:07;;;;;;;17.05;9.25;;;;;;;2.87;81.75;96115.88;1698756;84;21007;-78
2022/04/08 02:58:36;;;;;;;16.75;10.58;;;;;;;2.84;82.18;96111.19;1698518;84;21362;-78
2022/04/08 03:01:04;;;;;;;16.23;9.95;;;;;;;2.81;82.03;96104.73;1698745;84;21012;-78
2022/04/08 03:03:31;;;;;;;14.80;9.28;;;;;;;2.80;82.15;96112.18;1698639;84;21019;-78
2022/04/08 03:05:58;;;;;;;17.70;9.18;;;;;;;2.71;83.41;96109.39;1704939;83;21393;-77
2022/04/08 03:08:25;;;;;;;20.50;10.43;;;;;;;2.66;82.72;96113.89;1727390;83;21012;-77
2022/04/08 03:10:51;;;;;;;16.35;9.25;;;;;;;2.67;82.77;96115.17;1727513;83;21169;-77
2022/04/08 03:13:18;;;;;;;13.35;9.73;;;;;;;2.69;82.46;96125.12;1724961;83;20968;-78
2022/04/08 03:15:45;;;;;;;14.23;8.80;;;;;;;2.72;82.78;96118.50;1727473;83;21044;-77
2022/04/08 03:18:12;;;;;;;14.20;9.78;;;;;;;2.75;82.94;96119.70;1721573;82;21047;-77
2022/04/08 03:20:38;;;;;;;14.43;8.88;;;;;;;2.81;82.90;96126.97;1698109;84;20983;-78
2022/04/08 03:23:05;;;;;;;15.15;9.93;;;;;;;2.88;82.90;96140.30;1698374;84;21594;-78
2022/04/08 03:25:32;;;;;;;14.38;9.05;;;;;;;2.93;82.86;96131.86;1698697;84;21144;-78
2022/04/08 03:27:58;;;;;;;15.05;8.75;;;;;;;2.98;82.95;96131.71;1720845;83;21035;-78
2022/04/08 03:30:27;;;;;;;14.40;9.13;;;;;;;3.04;82.86;96136.79;1725512;82;20984;-78
2022/04/08 03:32:55;;;;;;;14.23;9.00;;;;;;;3.09;83.08;96140.12;1725745;83;21541;-78
2022/04/08 03:35:22;;;;;;;12.65;8.60;;;;;;;3.16;82.88;96136.87;1717454;83;21571;-78
2022/04/08 03:37:49;;;;;;;13.15;8.48;;;;;;;3.22;83.07;96152.83;1701242;84;21008;-78
2022/04/08 03:40:15;;;;;;;12.90;9.13;;;;;;;3.26;82.96;96159.69;1701577;84;22176;-78
2022/04/08 03:42:42;;;;;;;17.77;9.18;;;;;;;3.24;82.64;96160.20;1699362;84;21082;-78
2022/04/08 03:45:09;;;;;;;16.67;9.20;;;;;;;3.26;82.67;96154.45;1706210;83;20992;-78
2022/04/08 03:47:35;;;;;;;15.85;9.65;;;;;;;3.26;82.62;96159.25;1728653;83;21036;-78
2022/04/08 03:50:02;;;;;;;12.50;8.83;;;;;;;3.29;82.63;96160.45;1728712;83;21016;-79
2022/04/08 03:52:32;;;;;;;17.57;8.73;;;;;;;3.29;82.45;96170.09;1729095;83;21035;-79
2022/04/08 03:55:00;;;;;;;16.52;9.33;;;;;;;3.25;82.06;96176.31;1729223;83;20984;-79
2022/04/08 03:57:28;;;;;;;14.75;9.63;;;;;;;3.23;82.07;96178.09;1720589;83;21059;-78
2022/04/08 03:59:55;;;;;;;14.05;9.53;;;;;;;3.22;82.14;96190.79;1699347;84;21028;-78
2022/04/08 04:02:22;;;;;;;16.20;9.58;;;;;;;3.24;82.10;96186.38;1699350;84;21663;-79
2022/04/08 04:04:49;;;;;;;13.68;8.98;;;;;;;3.21;82.15;96191.27;1699659;84;21035;-77
2022/04/08 04:07:16;;;;;;;12.85;8.60;;;;;;;3.19;82.07;96206.61;1699331;84;21413;-78
2022/04/08 04:09:46;;;;;;;17.37;9.53;;;;;;;3.16;82.27;96208.39;1707818;83;21426;-79
2022/04/08 04:12:12;;;;;;;14.23;9.00;;;;;;;3.13;82.44;96205.88;1730632;83;21091;-77
2022/04/08 04:14:39;;;;;;;14.93;9.73;;;;;;;3.14;82.14;96206.28;1730318;83;21047;-77
2022/04/08 04:17:08;;;;;;;14.78;9.40;;;;;;;3.16;82.44;96207.09;1729500;83;21428;-77
2022/04/08 04:19:35;;;;;;;12.13;8.85;;;;;;;3.17;82.19;96208.80;1726229;83;21084;-77
2022/04/08 04:22:04;;;;;;;15.95;9.05;;;;;;;3.22;82.34;96207.37;1742201;81;21044;-77
2022/04/08 04:24:30;;;;;;;17.62;9.85;;;;;;;3.25;82.10;96216.45;1706098;83;21084;-76
2022/04/08 04:26:57;;;;;;;13.32;8.75;;;;;;;3.24;81.72;96213.41;1750998;82;20985;-78
2022/04/08 04:29:24;;;;;;;17.20;9.83;;;;;;;3.21;81.67;96203.05;1719415;82;20986;-77
2022/04/08 04:31:55;;;;;;;17.73;10.25;;;;;;;3.21;81.72;96194.31;1703842;84;21846;-78
2022/04/08 04:34:20;;;;;;;16.05;10.63;;;;;;;3.21;81.64;96191.70;1702719;83;21045;-78
2022/04/08 04:36:46;;;;;;;18.25;11.43;;;;;;;3.20;81.82;96181.66;1694608;84;21024;-78
2022/04/08 04:39:13;;;;;;;18.05;10.65;;;;;;;3.24;81.88;96177.22;1685838;85;21091;-78
2022/04/08 04:41:40;;;;;;;17.32;10.78;;;;;;;3.23;82.86;96185.95;1686162;85;20985;-78
2022/04/08 04:44:08;;;;;;;15.25;10.08;;;;;;;3.21;82.19;96178.61;1705281;84;21088;-78
2022/04/08 04:46:35;;;;;;;16.85;9.98;;;;;;;3.25;81.93;96194.64;1705629;83;21080;-78
2022/04/08 04:49:01;;;;;;;23.92;10.75;;;;;;;3.27;81.92;96216.38;1685990;85;21044;-78
2022/04/08 04:51:30;;;;;;;20.20;10.98;;;;;;;3.29;82.14;96214.13;1686168;85;21425;-76
2022/04/08 04:53:57;;;;;;;19.35;11.35;;;;;;;3.30;82.08;96197.98;1685387;85;21029;-77
2022/04/08 04:56:25;;;;;;;20.23;11.88;;;;;;;3.33;82.18;96208.38;1723392;82;20989;-76
2022/04/08 04:58:52;;;;;;;16.85;10.80;;;;;;;3.35;82.19;96206.55;1743010;82;21028;-77
2022/04/08 05:01:19;;;;;;;18.77;11.00;;;;;;;3.39;82.13;96217.34;1743435;82;20969;-77
2022/04/08 05:03:45;;;;;;;18.15;11.55;;;;;;;3.43;83.01;96211.12;1738984;82;21028;-78
2022/04/08 05:06:12;;;;;;;21.77;11.83;;;;;;;3.46;82.28;96211.91;1695648;82;21060;-79
2022/04/08 05:08:39;;;;;;;20.30;11.63;;;;;;;3.50;82.26;96215.73;1685762;85;20997;-78
2022/04/08 05:11:05;;;;;;;21.15;12.28;;;;;;;3.54;82.39;96216.02;1686188;85;21473;-79
2022/04/08 05:13:32;;;;;;;20.52;11.78;;;;;;;3.59;82.46;96215.89;1696869;82;20984;-78
2022/04/08 05:15:59;;;;;;;19.05;12.58;;;;;;;3.64;83.03;96204.81;1692887;82;20988;-79
2022/04/08 05:18:26;;;;;;;23.83;13.28;;;;;;;3.67;84.47;96199.49;1695322;84;21524;-79
2022/04/08 05:21:07;;;;;;;18.30;12.28;;;;;;;3.71;82.97;96188.45;1699361;84;21052;-79
2022/04/08 05:23:35;;;;;;;18.42;12.07;;;;;;;3.78;82.88;96197.83;1707717;82;21036;-79
2022/04/08 05:26:02;;;;;;;17.95;11.12;;;;;;;3.83;82.63;96194.60;1702708;84;21442;-78
2022/04/08 05:28:29;;;;;;;19.30;11.18;;;;;;;3.90;82.71;96195.27;1699796;84;21036;-78
2022/04/08 05:30:56;;;;;;;17.92;12.00;;;;;;;3.94;82.57;96194.27;1707151;84;21320;-78
2022/04/08 05:33:22;;;;;;;20.75;12.00;;;;;;;4.00;82.55;96189.73;1714766;82;21441;-78
2022/04/08 05:35:49;;;;;;;21.87;12.23;;;;;;;4.06;82.70;96205.25;1718408;82;21016;-77
2022/04/08 05:38:16;;;;;;;21.40;12.47;;;;;;;4.10;82.46;96193.77;1709503;83;21019;-77
2022/04/08 05:40:42;;;;;;;20.55;13.00;;;;;;;4.18;82.49;96194.38;1690952;83;21418;-78
2022/04/08 05:43:09;;;;;;;22.37;13.32;;;;;;;4.27;82.65;96191.05;1691020;85;21012;-78
2022/04/08 05:45:36;;;;;;;22.62;13.85;;;;;;;4.35;82.60;96184.64;1727551;82;21466;-77
2022/04/08 05:48:05;;;;;;;23.85;14.03;;;;;;;4.44;82.56;96181.31;1749108;82;21063;-77
2022/04/08 05:50:32;;;;;;;22.77;13.43;;;;;;;4.54;82.61;96187.08;1707868;83;21037;-77
2022/04/08 05:52:59;;;;;;;25.80;14.15;;;;;;;4.62;83.27;96181.95;1690015;84;21008;-78
2022/04/08 05:55:26;;;;;;;22.37;14.47;;;;;;;4.71;82.62;96182.11;1706438;83;21049;-77
2022/04/08 05:57:53;;;;;;;25.92;17.23;;;;;;;4.85;82.66;96190.79;1720320;83;21061;-77
2022/04/08 06:00:21;;;;;;;24.98;15.93;;;;;;;4.97;82.71;96195.19;1719602;83;21016;-77
2022/04/08 06:02:48;;;;;;;24.87;15.28;;;;;;;5.10;82.95;96196.91;1719828;83;21002;-78
2022/04/08 06:05:18;;;;;;;22.55;15.85;;;;;;;5.21;82.64;96207.89;1732329;82;20989;-78
2022/04/08 06:07:50;;;;;;;23.18;16.10;;;;;;;5.33;82.73;96221.47;1748678;82;21470;-78
2022/04/08 06:10:18;;;;;;;21.05;15.05;;;;;;;5.43;82.51;96230.72;1747521;82;21488;-78
2022/04/08 06:12:47;;;;;;;28.38;15.78;;;;;;;5.55;82.43;96239.91;1709174;83;21465;-78
2022/04/08 06:15:14;;;;;;;26.73;15.13;;;;;;;5.68;82.38;96254.75;1689913;85;21017;-78
2022/04/08 06:17:41;;;;;;;22.98;14.65;;;;;;;5.79;82.33;96255.66;1729716;82;21418;-78
2022/04/08 06:20:10;;;;;;;25.60;15.85;;;;;;;5.91;82.90;96267.48;1749671;82;21403;-80
2022/04/08 06:22:41;;;;;;;21.82;14.55;;;;;;;6.03;82.31;96271.44;1711947;83;21032;-78
2022/04/08 06:25:12;;;;;;;21.52;15.13;;;;;;;6.15;82.04;96276.67;1711404;82;21083;-78
2022/04/08 06:27:39;;;;;;;23.22;15.05;;;;;;;6.28;82.02;96278.36;1710833;82;21007;-78
2022/04/08 06:30:14;;;;;;;20.82;15.32;;;;;;;6.46;82.09;96280.70;1717201;82;21531;-78
2022/04/08 06:32:47;;;;;;;20.55;13.53;;;;;;;6.65;82.10;96287.39;1705748;82;21394;-76
2022/04/08 06:35:13;;;;;;;23.55;12.98;;;;;;;6.93;82.15;96287.53;1703428;83;20988;-77
2022/04/08 06:37:40;;;;;;;20.97;13.25;;;;;;;7.28;82.01;96302.75;1699560;82;21548;-76
2022/04/08 06:40:11;;;;;;;17.10;12.68;;;;;;;7.63;80.92;96308.69;1699981;82;21029;-78
2022/04/08 06:42:39;;;;;;;17.27;12.20;;;;;;;7.97;78.53;96324.29;1699591;84;21458;-76
2022/04/08 06:45:08;;;;;;;14.70;10.75;;;;;;;8.29;80.29;96315.80;1696671;84;21072;-76
2022/04/08 06:47:47;;;;;;;21.27;13.00;;;;;;;8.58;79.89;96322.36;1697008;82;21063;-77
2022/04/08 06:50:13;;;;;;;18.98;13.60;;;;;;;8.87;78.53;96336.83;1696702;84;20989;-77
2022/04/08 06:52:40;;;;;;;20.85;13.28;;;;;;;9.09;77.88;96342.77;1697249;83;21454;-76
2022/04/08 06:55:09;;;;;;;21.62;13.43;;;;;;;9.30;77.21;96343.09;1697713;84;21103;-77
2022/04/08 06:57:35;;;;;;;19.62;14.05;;;;;;;9.46;76.33;96353.71;1674341;83;21062;-76
2022/04/08 07:00:06;;;;;;;20.60;13.60;;;;;;;9.56;74.42;96348.81;1672395;83;21018;-77
2022/04/08 07:02:33;;;;;;;20.95;12.80;;;;;;;9.63;75.46;96353.70;1671907;83;21039;-76
2022/04/08 07:05:00;;;;;;;21.10;13.30;;;;;;;9.74;73.83;96350.95;1669886;83;21079;-77
2022/04/08 07:07:28;;;;;;;18.20;13.05;;;;;;;9.86;74.05;96341.06;1672252;83;21137;-77
2022/04/08 07:09:59;;;;;;;21.70;14.23;;;;;;;9.98;72.89;96342.65;1669119;83;21530;-77
2022/04/08 07:12:27;;;;;;;27.22;13.60;;;;;;;10.09;73.36;96346.88;1672465;83;21012;-77
2022/04/08 07:14:55;;;;;;;18.70;13.22;;;;;;;10.23;73.53;96356.74;1667799;83;21023;-77
2022/04/08 07:17:32;;;;;;;22.93;13.62;;;;;;;10.35;72.32;96349.92;1671807;83;21055;-78
2022/04/08 07:19:58;;;;;;;23.00;13.75;;;;;;;10.48;72.67;96350.13;1672162;83;21496;-77
2022/04/08 07:22:26;;;;;;;20.12;13.30;;;;;;;10.64;72.46;96354.09;1670155;83;21091;-77
2022/04/08 07:24:54;;;;;;;30.05;14.98;;;;;;;10.76;68.32;96361.79;1671696;83;21069;-77
2022/04/08 07:27:22;;;;;;;34.98;14.20;;;;;;;10.88;69.76;96357.59;1671591;83;21508;-77
2022/04/08 07:29:50;;;;;;;23.95;13.48;;;;;;;11.04;69.98;96365.52;1661570;83;21024;-77
2022/04/08 07:32:20;;;;;;;27.05;13.88;;;;;;;11.16;70.10;96373.23;1667286;83;21052;-77
2022/04/08 07:34:50;;;;;;;20.88;13.75;;;;;;;11.30;69.89;96378.22;1669853;83;21367;-77
2022/04/08 07:37:36;;;;;;;19.95;13.50;;;;;;;11.47;69.45;96384.69;1669292;83;21563;-76
2022/04/08 07:40:08;;;;;;;17.25;11.30;;;;;;;11.61;69.02;96376.38;1668084;83;21095;-77
2022/04/08 07:42:36;;;;;;;15.58;10.23;;;;;;;11.79;68.75;96384.20;1673375;83;21610;-77
2022/04/08 07:45:05;;;;;;;14.58;9.30;;;;;;;11.94;68.34;96383.72;1672507;83;21028;-75
2022/04/08 07:47:32;;;;;;;13.53;9.28;;;;;;;12.08;67.67;96389.56;1667514;83;21048;-77
2022/04/08 07:50:02;;;;;;;12.47;8.18;;;;;;;12.21;67.13;96390.48;1670664;83;21056;-76
2022/04/08 07:52:29;;;;;;;12.95;9.13;;;;;;;12.34;65.73;96395.88;1670112;83;21063;-76
2022/04/08 07:54:56;;;;;;;13.10;8.30;;;;;;;12.50;66.57;96384.31;1674356;83;21059;-76
2022/04/08 07:57:23;;;;;;;14.23;7.95;;;;;;;12.66;66.82;96385.50;1670376;83;21064;-77
2022/04/08 07:59:50;;;;;;;9.80;8.28;;;;;;;12.81;65.80;96391.65;1672776;83;21070;-77
2022/04/08 08:02:18;;;;;;;14.80;7.87;;;;;;;12.92;65.17;96394.95;1673080;83;21127;-77
2022/04/08 08:04:45;;;;;;;12.65;7.55;;;;;;;13.04;65.40;96396.80;1673967;83;21047;-77
2022/04/08 08:07:13;;;;;;;9.98;6.85;;;;;;;13.16;64.63;96409.77;1671408;83;21556;-77
2022/04/08 08:09:44;;;;;;;11.18;7.30;;;;;;;13.26;58.75;96414.48;1670149;83;21055;-77
2022/04/08 08:12:13;;;;;;;10.53;6.90;;;;;;;13.37;59.93;96412.45;1674254;83;21504;-77
2022/04/08 08:14:39;;;;;;;9.15;6.65;;;;;;;13.48;58.63;96411.28;1668521;83;21036;-76
2022/04/08 08:17:08;;;;;;;11.05;6.47;;;;;;;13.60;60.36;96404.28;1671517;83;21048;-76
2022/04/08 08:19:38;;;;;;;8.78;5.83;;;;;;;13.68;59.52;96407.28;1675986;83;21024;-76
2022/04/08 08:22:06;;;;;;;8.30;6.05;;;;;;;13.72;58.90;96414.11;1672474;83;21052;-76
2022/04/08 08:24:33;;;;;;;7.28;6.20;;;;;;;13.70;54.69;96423.16;1670845;83;21119;-77
2022/04/08 08:27:03;;;;;;;11.78;9.43;;;;;;;13.68;56.38;96411.28;1672829;83;21047;-77
2022/04/08 08:29:30;;;;;;;8.73;6.92;;;;;;;13.68;56.76;96425.05;1673759;83;21028;-76
2022/04/08 08:31:57;;;;;;;10.10;6.87;;;;;;;13.69;56.18;96431.61;1676028;83;21177;-77
2022/04/08 08:34:25;;;;;;;6.95;5.72;;;;;;;13.72;58.36;96435.88;1674504;83;21555;-77
2022/04/08 08:36:54;;;;;;;8.78;5.95;;;;;;;13.73;57.81;96436.24;1677189;83;21125;-77
2022/04/08 08:39:20;;;;;;;8.10;5.80;;;;;;;13.77;55.89;96434.22;1657675;83;21016;-77
2022/04/08 08:41:49;;;;;;;6.78;5.28;;;;;;;13.78;55.95;96436.78;1675870;82;21076;-77
2022/04/08 08:44:19;;;;;;;10.43;6.70;;;;;;;13.73;53.81;96448.22;1668464;83;21492;-77
2022/04/08 08:46:45;;;;;;;8.35;6.20;;;;;;;13.75;54.75;96454.31;1668113;83;21516;-77
2022/04/08 08:49:12;;;;;;;6.95;5.35;;;;;;;13.75;53.89;96460.11;1668807;83;21096;-77
2022/04/08 08:51:42;;;;;;;7.83;5.22;;;;;;;13.73;53.90;96474.84;1668031;83;21107;-77
2022/04/08 08:54:08;;;;;;;6.60;5.10;;;;;;;13.73;55.06;96469.05;1669192;83;21076;-78
2022/04/08 08:56:35;;;;;;;9.30;6.67;;;;;;;13.70;52.64;96485.72;1653835;85;21003;-77
2022/04/08 08:59:02;;;;;;;5.80;4.53;;;;;;;13.69;54.02;96470.68;1668219;83;20992;-77
2022/04/08 09:01:29;;;;;;;5.47;4.50;;;;;;;13.66;53.26;96478.89;1667089;83;21118;-77
2022/04/08 09:03:56;;;;;;;6.22;4.50;;;;;;;13.63;53.01;96485.27;1667108;84;21020;-78
2022/04/08 09:06:22;;;;;;;6.47;4.42;;;;;;;13.63;52.63;96487.07;1669518;84;21338;-77
2022/04/08 09:08:58;;;;;;;4.70;3.80;;;;;;;13.68;52.90;96497.80;1657664;85;21131;-78
2022/04/08 09:11:27;;;;;;;4.95;3.35;;;;;;;13.79;53.31;96500.22;1657769;86;21468;-79
2022/04/08 09:14:01;;;;;;;9.65;3.22;;;;;;;13.96;52.57;96503.08;1659680;84;21021;-78
2022/04/08 09:16:29;;;;;;;3.55;3.00;;;;;;;14.05;50.22;96506.92;1659573;84;21063;-77
2022/04/08 09:18:56;;;;;;;4.42;2.90;;;;;;;14.10;51.20;96505.67;1659548;84;21076;-78
2022/04/08 09:21:25;;;;;;;3.60;2.20;;;;;;;14.12;49.14;96522.88;1663408;84;21476;-78
2022/04/08 09:23:53;;;;;;;3.60;2.20;;;;;;;14.16;48.74;96532.84;1660992;84;21012;-78
2022/04/08 09:26:19;;;;;;;7.33;2.12;;;;;;;14.26;49.29;96540.59;1663289;84;21023;-79
2022/04/08 09:28:47;;;;;;;4.70;2.40;;;;;;;14.29;48.13;96548.38;1665213;84;21055;-79
2022/04/08 09:31:19;;;;;;;3.25;2.40;;;;;;;14.22;47.44;96555.94;1654017;84;21015;-79
2022/04/08 09:33:56;;;;;;;3.37;2.60;;;;;;;14.20;46.97;96545.01;1662265;84;21001;-79
2022/04/08 09:36:32;;;;;;;;;;;;;;;14.23;47.36;96555.44;1667071;84;21103;-79
2022/04/08 09:38:59;;;;;;;3.08;2.33;;;;;;;14.23;47.98;96552.30;1670359;84;20139;-79
2022/04/08 09:41:49;;;;;;;3.52;2.90;;;;;;;14.23;49.11;96556.30;1670920;84;21035;-79
2022/04/08 09:44:24;;;;;;;19.87;13.90;;;;;;;14.20;49.21;96559.16;1670638;84;21067;-79
2022/04/08 09:46:51;;;;;;;4.40;2.95;;;;;;;14.22;49.37;96562.59;1667822;84;21540;-79
2022/04/08 09:49:18;;;;;;;4.60;2.50;;;;;;;14.26;49.62;96557.91;1668748;84;21011;-78
2022/04/08 09:51:54;;;;;;;3.85;2.33;;;;;;;14.31;49.93;96565.11;1669572;84;21050;-78
2022/04/08 09:54:21;;;;;;;4.05;2.17;;;;;;;14.39;49.95;96568.58;1673289;84;21070;-78
2022/04/08 09:56:50;;;;;;;3.12;1.90;;;;;;;14.46;48.17;96579.22;1672716;84;21441;-78
2022/04/08 09:59:22;;;;;;;3.20;2.37;;;;;;;14.47;46.87;96563.59;1671807;84;21012;-78
2022/04/08 10:01:51;;;;;;;2.67;2.20;;;;;;;14.55;47.05;96573.72;1670030;84;21126;-78
2022/04/08 10:04:20;;;;;;;3.85;2.00;;;;;;;14.72;46.84;96577.03;1671077;84;21004;-77
2022/04/08 10:06:47;;;;;;;3.15;2.70;;;;;;;14.85;46.73;96588.59;1671775;84;21050;-78
2022/04/08 10:09:17;;;;;;;7.00;2.40;;;;;;;14.88;47.30;96590.19;1666802;84;21473;-83
2022/04/08 10:12:24;;;;;;;6.62;2.37;;;;;;;14.96;46.15;96589.64;1661044;85;21068;-82
2022/04/08 10:15:03;;;;;;;4.42;2.33;;;;;;;14.94;44.78;96583.08;1666688;84;21067;-82
2022/04/08 10:17:29;;;;;;;4.08;2.22;;;;;;;14.99;44.99;96582.77;1665530;84;22086;-82
2022/04/08 10:20:20;;;;;;;2.87;1.90;;;;;;;14.96;45.26;96586.98;1667128;84;21055;-83
2022/04/08 10:22:48;;;;;;;3.22;2.15;;;;;;;15.03;45.42;96597.11;1666708;85;21135;-83
2022/04/08 10:25:18;;;;;;;2.17;1.85;;;;;;;14.88;43.44;96583.05;1666562;84;22095;-83
2022/04/08 10:27:45;;;;;;;4.60;2.25;;;;;;;14.90;43.35;96586.92;1667649;85;21080;-82
2022/04/08 10:30:23;;;;;;;4.78;3.50;;;;;;;15.06;43.45;96584.03;1666653;85;21040;-82
2022/04/08 10:33:01;;;;;;;5.20;2.10;;;;;;;15.22;43.68;96584.27;1666019;85;21087;-85
2022/04/08 10:35:28;;;;;;;3.50;2.05;;;;;;;15.42;43.59;96575.71;1668931;84;21051;-83
2022/04/08 10:38:06;;;;;;;3.55;2.60;;;;;;;15.68;45.52;96575.62;1662289;84;21666;-84
2022/04/08 10:40:36;;;;;;;3.98;2.12;;;;;;;16.18;43.81;96587.17;1662367;84;21008;-85
2022/04/08 10:43:10;;;;;;;4.75;2.40;;;;;;;16.59;43.22;96575.16;1664083;84;21013;-78
2022/04/08 10:45:38;;;;;;;3.77;2.70;;;;;;;17.46;42.53;96556.84;1658619;86;21084;-78
2022/04/08 10:48:14;;;;;;;3.70;2.42;;;;;;;18.39;39.79;96553.75;1658692;85;21136;-78
2022/04/08 10:50:41;;;;;;;5.28;2.25;;;;;;;19.40;37.26;96541.59;1660967;84;21009;-77
2022/04/08 10:53:21;;;;;;;4.78;2.27;;;;;;;19.70;37.82;96543.84;1660302;84;21556;-77
2022/04/08 10:55:54;;;;;;;3.77;2.50;;;;;;;19.45;36.08;96540.67;1658067;85;21465;-77
2022/04/08 10:58:37;;;;;;;16.70;2.37;;;;;;;20.02;36.01;96553.52;1659488;86;21044;-77
2022/04/08 11:01:23;;;;;;;3.90;1.90;;;;;;;21.09;36.72;96554.89;1656069;85;21084;-79
2022/04/08 11:04:00;;;;;;;4.30;2.15;;;;;;;21.92;34.20;96557.74;1704211;84;20981;-79
2022/04/08 11:06:32;;;;;;;3.72;1.92;;;;;;;22.56;32.66;96548.75;1696981;84;21148;-78
2022/04/08 11:09:12;;;;;;;4.97;1.85;;;;;;;22.63;32.92;96534.95;1699406;84;21021;-77
2022/04/08 11:11:43;;;;;;;3.83;2.72;;;;;;;22.41;31.96;96531.73;1702094;84;21004;-77
2022/04/08 11:14:12;;;;;;;40.73;29.75;;;;;;;22.24;33.27;96533.94;1700931;84;21024;-77
2022/04/08 11:16:40;;;;;;;30.25;4.10;;;;;;;21.84;31.92;96534.23;1698761;84;21174;-77
2022/04/08 11:19:10;;;;;;;5.30;2.60;;;;;;;22.31;32.73;96537.72;1699066;83;21397;-77
2022/04/08 11:21:39;;;;;;;3.27;2.55;;;;;;;22.83;30.17;96537.97;1697099;84;21020;-76
2022/04/08 11:24:13;;;;;;;4.65;2.58;;;;;;;22.38;28.63;96539.30;1698452;84;21031;-76
2022/04/08 11:26:49;;;;;;;4.80;2.80;;;;;;;22.66;28.18;96546.80;1700659;84;21335;-76
2022/04/08 11:29:25;;;;;;;4.75;2.60;;;;;;;23.55;28.15;96524.14;1697524;84;21008;-75
2022/04/08 11:31:56;;;;;;;5.58;2.40;;;;;;;23.55;26.69;96533.60;1699714;82;21059;-76
2022/04/08 11:34:26;;;;;;;7.53;2.62;;;;;;;23.92;28.42;96527.45;1696474;84;21008;-76
2022/04/08 11:36:55;;;;;;;4.75;1.75;;;;;;;24.42;28.47;96505.03;1700205;83;21097;-77